createdAt,value
2022-12-20T00:01:27.170Z,93.40
2022-12-20T00:03:55.278Z,93.40
2022-12-20T00:06:22.432Z,93.40
2022-12-20T00:08:57.402Z,93.40
2022-12-20T00:11:27.765Z,93.40
2022-12-20T00:13:54.791Z,93.40
2022-12-20T00:16:23.104Z,93.40
2022-12-20T00:18:56.984Z,93.40
2022-12-20T00:21:23.937Z,93.40
2022-12-20T00:23:51.944Z,93.40
2022-12-20T00:26:20.561Z,93.40
2022-12-20T00:28:47.556Z,93.40
2022-12-20T00:31:16.721Z,93.40
2022-12-20T00:33:46.185Z,93.40
2022-12-20T00:36:13.234Z,93.40
2022-12-20T00:38:40.208Z,93.40
2022-12-20T00:41:07.225Z,93.50
2022-12-20T00:43:34.362Z,93.50
2022-12-20T00:46:01.551Z,93.50
2022-12-20T00:48:28.833Z,93.50
2022-12-20T00:51:02.627Z,93.50
2022-12-20T00:53:29.803Z,93.50
2022-12-20T00:55:56.957Z,93.50
2022-12-20T00:58:23.990Z,93.50
2022-12-20T01:00:56.206Z,93.50
2022-12-20T01:03:24.791Z,93.50
2022-12-20T01:06:04.565Z,93.50
2022-12-20T01:08:31.620Z,93.50
2022-12-20T01:11:03.163Z,93.40
2022-12-20T01:13:30.272Z,93.40
2022-12-20T01:15:57.424Z,93.40
2022-12-20T01:18:24.350Z,93.40
2022-12-20T01:20:56.967Z,93.50
2022-12-20T01:23:23.973Z,93.50
2022-12-20T01:25:51.748Z,93.50
2022-12-20T01:28:18.678Z,93.50
2022-12-20T01:30:45.681Z,93.50
2022-12-20T01:33:12.903Z,93.50
2022-12-20T01:35:39.800Z,93.50
2022-12-20T01:38:06.694Z,93.50
2022-12-20T01:40:33.615Z,93.50
2022-12-20T01:43:00.577Z,93.60
2022-12-20T01:45:29.395Z,93.60
2022-12-20T01:47:57.714Z,93.60
2022-12-20T01:50:24.878Z,93.60
2022-12-20T01:52:51.835Z,93.60
2022-12-20T01:55:26.454Z,93.60
2022-12-20T01:57:55.342Z,93.60
2022-12-20T02:00:25.312Z,93.60
2022-12-20T02:02:52.275Z,93.60
2022-12-20T02:05:20.304Z,93.60
2022-12-20T02:07:48.767Z,93.60
2022-12-20T02:10:15.708Z,93.60
2022-12-20T02:12:46.583Z,93.60
2022-12-20T02:15:21.171Z,93.60
2022-12-20T02:18:12.712Z,93.60
2022-12-20T02:21:13.036Z,93.70
2022-12-20T02:24:04.421Z,93.70
2022-12-20T02:27:08.989Z,93.60
2022-12-20T02:29:54.679Z,93.60
2022-12-20T02:32:31.443Z,93.60
2022-12-20T02:34:58.338Z,93.60
2022-12-20T02:37:25.660Z,93.70
2022-12-20T02:39:52.758Z,93.70
2022-12-20T02:42:21.547Z,93.70
2022-12-20T02:45:16.350Z,93.70
2022-12-20T02:47:50.043Z,93.70
2022-12-20T02:50:32.028Z,93.70
2022-12-20T02:52:59.605Z,93.70
2022-12-20T02:55:58.479Z,93.70
2022-12-20T02:58:40.306Z,93.70
2022-12-20T03:01:09.620Z,93.70
2022-12-20T03:03:36.723Z,93.80
2022-12-20T03:06:03.950Z,93.80
2022-12-20T03:08:30.833Z,93.80
2022-12-20T03:10:58.084Z,93.80
2022-12-20T03:13:25.230Z,93.80
2022-12-20T03:15:52.280Z,93.80
2022-12-20T03:18:19.224Z,93.80
2022-12-20T03:20:46.169Z,93.80
2022-12-20T03:23:13.136Z,93.80
2022-12-20T03:25:40.121Z,93.80
2022-12-20T03:28:07.097Z,93.80
2022-12-20T03:30:34.097Z,93.80
2022-12-20T03:33:01.093Z,93.80
2022-12-20T03:35:28.203Z,93.80
2022-12-20T03:37:56.419Z,93.80
2022-12-20T03:40:23.446Z,93.80
2022-12-20T03:42:50.441Z,93.80
2022-12-20T03:45:17.552Z,93.80
2022-12-20T03:47:44.498Z,93.80
2022-12-20T03:50:12.152Z,93.80
2022-12-20T03:52:39.047Z,93.80
2022-12-20T03:55:06.671Z,93.80
2022-12-20T03:57:33.658Z,93.70
2022-12-20T04:00:00.588Z,93.70
2022-12-20T04:02:27.654Z,93.70
2022-12-20T04:04:54.799Z,93.70
2022-12-20T04:07:21.694Z,93.70
2022-12-20T04:09:48.671Z,93.70
2022-12-20T04:12:15.590Z,93.70
2022-12-20T04:14:42.657Z,93.70
2022-12-20T04:17:09.691Z,93.70
2022-12-20T04:19:36.582Z,93.70
2022-12-20T04:22:06.143Z,93.70
2022-12-20T04:24:33.284Z,93.70
2022-12-20T04:27:00.269Z,93.70
2022-12-20T04:29:27.255Z,93.70
2022-12-20T04:31:54.278Z,93.70
2022-12-20T04:34:21.198Z,93.70
2022-12-20T04:36:48.200Z,93.70
2022-12-20T04:39:15.103Z,93.70
2022-12-20T04:41:42.091Z,93.70
2022-12-20T04:44:09.056Z,93.70
2022-12-20T04:46:36.066Z,93.70
2022-12-20T04:49:03.036Z,93.70
2022-12-20T04:51:29.993Z,93.70
2022-12-20T04:53:56.916Z,93.70
2022-12-20T04:56:28.582Z,93.70
2022-12-20T04:58:56.877Z,93.70
2022-12-20T05:01:24.009Z,93.70
2022-12-20T05:03:51.295Z,93.70
2022-12-20T05:06:18.452Z,93.70
2022-12-20T05:08:45.337Z,93.70
2022-12-20T05:11:12.331Z,93.70
2022-12-20T05:13:39.323Z,93.70
2022-12-20T05:16:06.485Z,93.70
2022-12-20T05:18:33.475Z,93.70
2022-12-20T05:21:19.683Z,93.70
2022-12-20T05:24:05.617Z,93.70
2022-12-20T05:26:34.560Z,93.70
2022-12-20T05:29:01.446Z,93.70
2022-12-20T05:31:28.442Z,93.70
2022-12-20T05:33:55.383Z,93.60
2022-12-20T05:36:22.322Z,93.70
2022-12-20T05:38:49.271Z,93.70
2022-12-20T05:41:16.167Z,93.70
2022-12-20T05:43:43.252Z,93.70
2022-12-20T05:46:10.915Z,93.70
2022-12-20T05:48:38.069Z,93.70
2022-12-20T05:51:05.237Z,93.70
2022-12-20T05:53:32.157Z,93.70
2022-12-20T05:55:59.494Z,93.70
2022-12-20T05:58:26.425Z,93.70
2022-12-20T06:00:53.449Z,93.70
2022-12-20T06:03:20.716Z,93.70
2022-12-20T06:05:47.786Z,93.70
2022-12-20T06:08:14.856Z,93.70
2022-12-20T06:10:42.275Z,93.70
2022-12-20T06:13:09.571Z,93.80
2022-12-20T06:15:37.081Z,93.80
2022-12-20T06:18:04.241Z,93.80
2022-12-20T06:20:31.476Z,93.80
2022-12-20T06:22:58.484Z,93.90
2022-12-20T06:25:25.716Z,93.80
2022-12-20T06:27:52.885Z,93.80
2022-12-20T06:30:20.015Z,93.80
2022-12-20T06:32:46.960Z,93.80
2022-12-20T06:35:14.483Z,93.80
2022-12-20T06:37:41.924Z,93.80
2022-12-20T06:40:10.689Z,93.80
2022-12-20T06:42:37.713Z,93.80
2022-12-20T06:45:05.277Z,93.80
2022-12-20T06:47:32.223Z,93.80
2022-12-20T06:49:59.167Z,93.80
2022-12-20T06:52:26.121Z,93.80
2022-12-20T06:54:53.071Z,93.80
2022-12-20T06:57:20.078Z,93.80
2022-12-20T06:59:47.033Z,93.80
2022-12-20T07:02:14.226Z,93.80
2022-12-20T07:04:41.310Z,93.80
2022-12-20T07:07:08.193Z,93.80
2022-12-20T07:09:35.141Z,93.70
2022-12-20T07:12:02.033Z,93.70
2022-12-20T07:14:29.122Z,93.70
2022-12-20T07:16:56.161Z,93.60
2022-12-20T07:19:23.071Z,93.60
2022-12-20T07:21:49.948Z,93.60
2022-12-20T07:24:16.868Z,93.60
2022-12-20T07:26:46.806Z,93.80
2022-12-20T07:29:16.049Z,93.60
2022-12-20T07:31:43.617Z,93.60
2022-12-20T07:34:11.035Z,93.60
2022-12-20T07:36:37.973Z,93.60
2022-12-20T07:39:04.896Z,93.60
2022-12-20T07:41:31.797Z,93.60
2022-12-20T07:43:59.563Z,93.60
2022-12-20T07:46:26.781Z,93.60
2022-12-20T07:48:53.893Z,93.60
2022-12-20T07:51:38.146Z,93.60
2022-12-20T07:54:35.959Z,93.60
2022-12-20T07:57:06.128Z,93.60
2022-12-20T07:59:41.508Z,93.60
2022-12-20T08:02:10.000Z,93.50
2022-12-20T08:04:37.063Z,93.40
2022-12-20T08:07:04.050Z,93.40
2022-12-20T08:09:32.024Z,93.50
2022-12-20T08:11:59.014Z,93.50
2022-12-20T08:14:25.909Z,93.50
2022-12-20T08:16:52.989Z,93.50
2022-12-20T08:19:20.134Z,93.50
2022-12-20T08:21:47.080Z,93.50
2022-12-20T08:24:13.994Z,93.60
2022-12-20T08:26:41.916Z,93.60
2022-12-20T08:29:09.024Z,93.60
2022-12-20T08:31:44.434Z,93.60
2022-12-20T08:34:14.704Z,93.60
2022-12-20T08:36:41.724Z,93.60
2022-12-20T08:39:08.720Z,93.70
2022-12-20T08:41:37.632Z,93.60
2022-12-20T08:44:05.763Z,93.60
2022-12-20T08:46:32.880Z,93.60
2022-12-20T08:48:59.911Z,93.60
2022-12-20T08:51:27.136Z,93.60
2022-12-20T08:53:54.193Z,93.60
2022-12-20T08:56:21.476Z,93.50
2022-12-20T08:58:48.524Z,93.50
2022-12-20T09:05:06.561Z,93.50
2022-12-20T09:07:36.417Z,93.50
2022-12-20T09:10:03.745Z,93.50
2022-12-20T09:12:30.957Z,93.50
2022-12-20T09:15:00.522Z,93.50
2022-12-20T09:17:27.732Z,93.40
2022-12-20T09:19:55.475Z,93.40
2022-12-20T09:22:24.149Z,93.40
2022-12-20T09:25:21.472Z,93.40
2022-12-20T09:27:46.395Z,93.30
2022-12-20T09:30:16.737Z,93.40
2022-12-20T09:33:08.586Z,93.40
2022-12-20T09:35:48.883Z,93.40
2022-12-20T09:38:16.085Z,93.30
2022-12-20T09:40:47.923Z,93.30
2022-12-20T09:43:16.256Z,93.30
2022-12-20T09:45:58.579Z,93.20
2022-12-20T09:48:39.163Z,93.20
2022-12-20T09:51:39.664Z,93.20
2022-12-20T09:54:30.780Z,93.10
2022-12-20T09:56:58.197Z,93.10
2022-12-20T09:59:25.193Z,93.10
2022-12-20T10:01:53.148Z,93.10
2022-12-20T10:04:27.314Z,93.10
2022-12-20T10:07:16.376Z,93.10
2022-12-20T10:10:08.548Z,93.10
2022-12-20T10:12:53.892Z,93.10
2022-12-20T10:15:22.476Z,93.10
2022-12-20T10:18:01.763Z,93.10
2022-12-20T10:20:54.552Z,93.10
2022-12-20T10:23:33.558Z,93.00
2022-12-20T10:26:08.109Z,93.00
2022-12-20T10:28:40.538Z,93.00
2022-12-20T10:31:14.881Z,93.00
2022-12-20T10:33:45.425Z,93.00
2022-12-20T10:36:27.032Z,93.00
2022-12-20T10:39:12.848Z,92.90
2022-12-20T10:41:42.964Z,92.90
2022-12-20T10:44:27.180Z,92.90
2022-12-20T10:50:21.163Z,92.80
2022-12-20T10:53:20.337Z,92.80
2022-12-20T10:55:47.383Z,92.80
2022-12-20T10:58:19.140Z,92.70
2022-12-20T11:00:51.350Z,92.70
2022-12-20T11:03:22.702Z,92.70
2022-12-20T11:06:01.831Z,92.60
2022-12-20T11:08:39.327Z,92.60
2022-12-20T11:14:34.624Z,92.50
2022-12-20T11:17:21.967Z,92.50
2022-12-20T11:20:23.884Z,92.40
2022-12-20T11:23:21.310Z,92.40
2022-12-20T11:25:58.234Z,92.30
2022-12-20T11:29:02.786Z,92.30
2022-12-20T11:35:19.890Z,92.20
2022-12-20T11:38:08.998Z,92.20
2022-12-20T11:40:44.577Z,92.10
2022-12-20T11:43:30.948Z,92.10
2022-12-20T11:46:21.082Z,92.00
2022-12-20T11:48:57.097Z,92.00
2022-12-20T11:51:44.391Z,91.90
2022-12-20T11:54:23.115Z,91.90
2022-12-20T11:56:52.759Z,91.80
2022-12-20T11:59:35.648Z,91.80
2022-12-20T12:02:19.922Z,91.80
2022-12-20T12:04:56.231Z,91.70
2022-12-20T12:07:36.783Z,91.60
2022-12-20T12:10:20.411Z,91.60
2022-12-20T12:13:08.454Z,91.60
2022-12-20T12:15:40.556Z,91.60
2022-12-20T12:18:15.040Z,91.50
2022-12-20T12:20:48.315Z,91.50
2022-12-20T12:24:06.249Z,91.50
2022-12-20T12:26:35.071Z,91.40
2022-12-20T12:29:09.820Z,91.40
2022-12-20T12:31:45.626Z,91.30
2022-12-20T12:34:19.996Z,91.30
2022-12-20T12:37:24.448Z,91.30
2022-12-20T12:40:12.865Z,91.20
2022-12-20T12:42:54.768Z,91.10
2022-12-20T12:45:31.654Z,91.10
2022-12-20T12:48:04.630Z,91.10
2022-12-20T12:50:37.483Z,91.00
2022-12-20T12:53:09.435Z,91.00
2022-12-20T12:55:40.510Z,90.90
2022-12-20T12:58:32.039Z,90.90
2022-12-20T13:01:11.885Z,90.80
2022-12-20T13:03:43.664Z,90.80
2022-12-20T13:06:26.044Z,90.70
2022-12-20T13:08:59.066Z,90.70
2022-12-20T13:11:47.114Z,90.70
2022-12-20T13:14:19.102Z,90.60
2022-12-20T13:17:11.604Z,90.60
2022-12-20T13:20:02.556Z,90.60
2022-12-20T13:22:32.802Z,90.50
2022-12-20T13:25:00.689Z,90.50
2022-12-20T13:27:39.215Z,90.50
2022-12-20T13:30:21.664Z,90.40
2022-12-20T13:32:55.919Z,90.40
2022-12-20T13:35:26.115Z,90.40
2022-12-20T13:38:06.157Z,90.30
2022-12-20T13:40:47.253Z,90.30
2022-12-20T13:43:20.289Z,90.30
2022-12-20T13:45:49.160Z,90.30
2022-12-20T13:48:18.228Z,90.20
2022-12-20T13:50:57.024Z,90.20
2022-12-20T13:53:27.665Z,90.20
2022-12-20T13:55:55.274Z,90.20
2022-12-20T13:58:26.066Z,90.20
2022-12-20T14:00:53.649Z,90.10
2022-12-20T14:03:28.234Z,90.10
2022-12-20T14:06:02.532Z,90.10
2022-12-20T14:08:34.984Z,90.10
2022-12-20T14:11:12.468Z,90.10
2022-12-20T14:13:40.177Z,90.00
2022-12-20T14:16:20.902Z,90.00
2022-12-20T14:19:06.509Z,90.00
2022-12-20T14:21:45.376Z,89.90
2022-12-20T14:24:18.468Z,89.90
2022-12-20T14:26:51.219Z,89.90
2022-12-20T14:29:19.919Z,89.90
2022-12-20T14:31:48.654Z,89.80
2022-12-20T14:34:29.527Z,89.70
2022-12-20T14:37:30.119Z,89.60
2022-12-20T14:40:11.524Z,89.40
2022-12-20T14:42:39.872Z,89.50
2022-12-20T14:45:17.769Z,89.50
2022-12-20T14:48:04.534Z,89.40
2022-12-20T14:50:39.109Z,89.20
2022-12-20T14:53:16.442Z,89.20
2022-12-20T14:55:45.760Z,89.20
2022-12-20T14:58:32.920Z,89.20
2022-12-20T15:01:17.766Z,89.20
2022-12-20T15:04:46.257Z,89.20
2022-12-20T15:07:34.519Z,89.20
2022-12-20T15:10:01.585Z,89.30
2022-12-20T15:12:28.883Z,89.40
2022-12-20T15:14:55.810Z,89.50
2022-12-20T15:17:24.814Z,89.50
2022-12-20T15:19:52.225Z,89.50
2022-12-20T15:22:19.494Z,89.50
2022-12-20T15:24:54.127Z,89.60
2022-12-20T15:27:21.464Z,89.50
2022-12-20T15:29:48.522Z,89.60
2022-12-20T15:32:25.670Z,89.60
2022-12-20T15:34:58.469Z,89.60
2022-12-20T15:37:25.657Z,89.60
2022-12-20T15:39:54.202Z,89.70
2022-12-20T15:42:23.076Z,89.80
2022-12-20T15:44:50.236Z,89.80
2022-12-20T15:47:17.506Z,89.90
2022-12-20T15:49:49.732Z,90.00
2022-12-20T15:52:20.686Z,90.00
2022-12-20T15:54:56.347Z,90.00
2022-12-20T15:57:23.593Z,90.10
2022-12-20T16:00:03.750Z,90.10
2022-12-20T16:02:32.857Z,90.10
2022-12-20T16:05:00.352Z,90.20
2022-12-20T16:07:28.089Z,90.20
2022-12-20T16:09:55.933Z,90.30
2022-12-20T16:12:32.991Z,90.30
2022-12-20T16:15:00.159Z,90.40
2022-12-20T16:17:30.216Z,90.70
2022-12-20T16:19:57.156Z,90.50
2022-12-20T16:22:45.716Z,90.50
2022-12-20T16:25:25.940Z,90.50
2022-12-20T16:27:55.435Z,90.60
2022-12-20T16:30:23.737Z,90.60
2022-12-20T16:32:53.990Z,90.60
2022-12-20T16:35:37.583Z,90.60
2022-12-20T16:38:04.624Z,90.70
2022-12-20T16:40:35.155Z,90.70
2022-12-20T16:43:05.349Z,90.70
2022-12-20T16:45:32.988Z,90.70
2022-12-20T16:48:00.086Z,90.70
2022-12-20T16:50:28.076Z,90.70
2022-12-20T16:52:55.083Z,90.70
2022-12-20T16:55:24.920Z,90.70
2022-12-20T16:57:52.151Z,90.70
2022-12-20T17:00:21.595Z,90.80
2022-12-20T17:02:49.087Z,90.80
2022-12-20T17:05:28.349Z,90.90
2022-12-20T17:07:55.653Z,90.90
2022-12-20T17:10:24.582Z,90.90
2022-12-20T17:12:51.951Z,91.00
2022-12-20T17:15:27.082Z,91.00
2022-12-20T17:17:56.286Z,91.00
2022-12-20T17:20:25.046Z,91.10
2022-12-20T17:25:52.078Z,91.10
2022-12-20T17:29:00.978Z,91.10
2022-12-20T17:31:39.337Z,91.20
2022-12-20T17:34:09.703Z,91.20
2022-12-20T17:36:40.983Z,91.20
2022-12-20T17:39:11.083Z,91.20
2022-12-20T17:41:38.305Z,91.30
2022-12-20T17:44:06.186Z,91.30
2022-12-20T17:50:32.458Z,91.30
2022-12-20T17:55:43.951Z,91.40
2022-12-20T17:58:13.942Z,91.40
2022-12-20T18:00:58.514Z,91.40
2022-12-20T18:04:01.438Z,91.40
2022-12-20T18:06:34.093Z,91.50
2022-12-20T18:09:03.930Z,91.50
2022-12-20T18:11:31.189Z,91.40
2022-12-20T18:14:05.078Z,91.40
2022-12-20T18:16:50.982Z,91.40
2022-12-20T18:19:21.107Z,91.40
2022-12-20T18:22:12.426Z,91.40
2022-12-20T18:24:39.775Z,91.50
2022-12-20T18:27:10.366Z,91.50
2022-12-20T18:30:33.934Z,91.50
2022-12-20T18:33:03.772Z,91.50
2022-12-20T18:35:38.218Z,91.50
2022-12-20T18:42:13.729Z,91.60
2022-12-20T18:49:00.476Z,91.60
2022-12-20T18:52:05.043Z,91.60
2022-12-20T19:06:04.677Z,91.60
2022-12-20T19:08:31.983Z,91.60
2022-12-20T19:11:25.956Z,91.70
2022-12-20T19:14:41.242Z,91.60
2022-12-20T19:24:08.202Z,91.70
2022-12-20T19:26:39.333Z,91.70
2022-12-20T19:29:12.737Z,91.70
2022-12-20T19:32:20.444Z,91.70
2022-12-20T19:38:11.480Z,91.70
2022-12-20T19:40:38.840Z,91.70
2022-12-20T19:43:47.275Z,91.70
2022-12-20T19:46:11.809Z,91.70
2022-12-20T19:48:53.104Z,91.70
2022-12-20T19:51:26.988Z,91.70
2022-12-20T19:54:00.614Z,91.70
2022-12-20T19:56:32.410Z,91.70
2022-12-20T19:58:59.511Z,91.70
2022-12-20T20:01:29.094Z,91.70
2022-12-20T20:03:57.886Z,91.70
2022-12-20T20:06:25.250Z,91.70
2022-12-20T20:08:52.259Z,91.70
2022-12-20T20:11:19.746Z,91.70
2022-12-20T20:13:46.963Z,91.70
2022-12-20T20:16:19.971Z,91.70
2022-12-20T20:18:51.985Z,91.70
2022-12-20T20:21:41.260Z,91.80
2022-12-20T20:24:09.954Z,91.70
2022-12-20T20:26:39.028Z,91.70
2022-12-20T20:29:07.420Z,91.70
2022-12-20T20:31:34.708Z,91.80
2022-12-20T20:34:02.068Z,91.70
2022-12-20T20:36:30.491Z,91.70
2022-12-20T20:38:57.703Z,91.70
2022-12-20T20:41:34.578Z,91.70
2022-12-20T20:44:15.648Z,91.80
2022-12-20T20:46:42.909Z,91.80
2022-12-20T20:49:13.996Z,91.80
2022-12-20T20:51:41.513Z,91.80
2022-12-20T20:54:08.891Z,91.80
2022-12-20T20:56:36.135Z,91.80
2022-12-20T20:59:08.136Z,91.80
2022-12-20T21:01:37.773Z,91.80
2022-12-20T21:04:05.489Z,91.80
2022-12-20T21:06:39.818Z,91.80
2022-12-20T21:09:15.810Z,91.80
2022-12-20T21:11:43.176Z,91.80
2022-12-20T21:14:12.837Z,91.80
2022-12-20T21:16:42.906Z,91.80
2022-12-20T21:19:10.669Z,91.80
2022-12-20T21:21:37.787Z,91.90
2022-12-20T21:24:05.133Z,91.90
2022-12-20T21:26:32.053Z,91.90
2022-12-20T21:28:59.639Z,91.90
2022-12-20T21:31:27.919Z,91.90
2022-12-20T21:33:55.532Z,91.90
2022-12-20T21:36:25.847Z,91.90
2022-12-20T21:38:54.469Z,91.90
2022-12-20T21:41:23.455Z,91.90
2022-12-20T21:43:51.421Z,91.90
2022-12-20T21:46:18.625Z,91.90
2022-12-20T21:48:53.484Z,91.90
2022-12-20T21:51:21.818Z,91.90
2022-12-20T21:53:52.029Z,91.90
2022-12-20T21:56:19.363Z,91.90
2022-12-20T21:58:49.122Z,91.90
2022-12-20T22:01:20.701Z,91.90
2022-12-20T22:03:50.922Z,91.90
2022-12-20T22:06:20.660Z,91.90
2022-12-20T22:08:47.690Z,91.90
2022-12-20T22:11:16.220Z,91.90
2022-12-20T22:13:43.338Z,91.90
2022-12-20T22:16:15.537Z,92.00
2022-12-20T22:18:42.948Z,92.00
2022-12-20T22:21:11.737Z,92.00
2022-12-20T22:23:38.953Z,92.00
2022-12-20T22:26:06.862Z,92.00
2022-12-20T22:28:34.092Z,92.00
2022-12-20T22:31:01.021Z,92.00
2022-12-20T22:33:28.002Z,92.00
2022-12-20T22:35:55.225Z,92.00
2022-12-20T22:38:22.165Z,92.00
2022-12-20T22:40:50.354Z,91.90
2022-12-20T22:43:17.374Z,91.90
2022-12-20T22:45:44.543Z,91.90
2022-12-20T22:48:11.576Z,91.90
2022-12-20T22:50:38.520Z,92.00
2022-12-20T22:53:05.483Z,92.00
2022-12-20T22:55:34.473Z,92.00
2022-12-20T22:58:01.550Z,92.00
2022-12-20T23:00:28.562Z,92.00
2022-12-20T23:02:55.659Z,92.00
2022-12-20T23:05:22.695Z,92.00
2022-12-20T23:07:49.615Z,92.00
2022-12-20T23:10:37.376Z,92.00
2022-12-20T23:13:23.114Z,92.00
2022-12-20T23:15:50.232Z,92.00
2022-12-20T23:18:17.197Z,92.00
2022-12-20T23:21:10.800Z,92.00
2022-12-20T23:23:37.923Z,92.00
2022-12-20T23:26:14.287Z,92.20
2022-12-20T23:28:41.579Z,92.00
2022-12-20T23:31:08.727Z,92.00
2022-12-20T23:33:35.737Z,92.00
2022-12-20T23:36:03.652Z,92.00
2022-12-20T23:38:34.657Z,92.00
2022-12-20T23:41:01.890Z,92.00
2022-12-20T23:43:31.869Z,92.00
2022-12-20T23:46:12.559Z,92.00
2022-12-20T23:48:39.849Z,92.00
2022-12-20T23:51:12.340Z,92.00
2022-12-20T23:53:39.363Z,92.10
2022-12-20T23:56:11.967Z,92.10
2022-12-20T23:58:58.880Z,92.10
